createdAt,value
2022-10-02T00:00:25.612Z,11.31
2022-10-02T00:01:25.616Z,11.29
2022-10-02T00:02:25.574Z,11.31
2022-10-02T00:03:25.849Z,11.29
2022-10-02T00:04:25.711Z,11.29
2022-10-02T00:05:25.531Z,11.28
2022-10-02T00:06:25.610Z,11.31
2022-10-02T00:07:25.507Z,11.29
2022-10-02T00:08:25.501Z,11.32
2022-10-02T00:09:25.498Z,11.32
2022-10-02T00:10:25.470Z,11.32
2022-10-02T00:11:25.458Z,11.31
2022-10-02T00:12:25.486Z,11.31
2022-10-02T00:13:25.438Z,11.32
2022-10-02T00:14:25.446Z,11.29
2022-10-02T00:15:25.419Z,11.28
2022-10-02T00:16:25.775Z,11.27
2022-10-02T00:17:25.388Z,11.28
2022-10-02T00:18:25.427Z,11.27
2022-10-02T00:19:25.387Z,11.27
2022-10-02T00:20:25.378Z,11.24
2022-10-02T00:21:25.356Z,11.25
2022-10-02T00:22:25.387Z,11.25
2022-10-02T00:23:25.626Z,11.24
2022-10-02T00:24:25.710Z,11.25
2022-10-02T00:25:25.332Z,11.24
2022-10-02T00:26:25.344Z,11.25
2022-10-02T00:27:25.316Z,11.27
2022-10-02T00:28:25.325Z,11.25
2022-10-02T00:29:25.269Z,11.25
2022-10-02T00:30:25.611Z,11.24
2022-10-02T00:31:25.274Z,11.24
2022-10-02T00:32:25.256Z,11.20
2022-10-02T00:33:25.251Z,11.20
2022-10-02T00:34:25.216Z,11.21
2022-10-02T00:35:25.209Z,11.20
2022-10-02T00:36:25.238Z,11.21
2022-10-02T00:37:25.466Z,11.21
2022-10-02T00:38:25.194Z,11.24
2022-10-02T00:39:25.191Z,11.21
2022-10-02T00:40:25.188Z,11.20
2022-10-02T00:41:25.142Z,11.20
2022-10-02T00:42:25.169Z,11.20
2022-10-02T00:43:25.133Z,11.19
2022-10-02T00:44:25.380Z,11.17
2022-10-02T00:45:25.203Z,11.19
2022-10-02T00:46:25.102Z,11.20
2022-10-02T00:47:25.113Z,11.19
2022-10-02T00:48:25.096Z,11.19
2022-10-02T00:49:25.052Z,11.19
2022-10-02T00:50:25.056Z,11.19
2022-10-02T00:51:25.352Z,11.16
2022-10-02T00:52:25.051Z,11.19
2022-10-02T00:53:25.005Z,11.20
2022-10-02T00:54:25.045Z,11.21
2022-10-02T00:55:24.986Z,11.24
2022-10-02T00:56:25.014Z,11.25
2022-10-02T00:57:25.009Z,11.27
2022-10-02T00:58:24.964Z,11.28
2022-10-02T00:59:24.955Z,11.29
2022-10-02T01:00:24.970Z,11.29
2022-10-02T01:01:24.986Z,11.31
2022-10-02T01:02:24.937Z,11.31
2022-10-02T01:03:25.189Z,11.31
2022-10-02T01:04:24.898Z,11.32
2022-10-02T01:05:24.888Z,11.34
2022-10-02T01:06:24.989Z,11.38
2022-10-02T01:07:24.874Z,11.43
2022-10-02T01:08:24.852Z,11.44
2022-10-02T01:09:24.843Z,11.47
2022-10-02T01:10:24.838Z,11.52
2022-10-02T01:11:24.826Z,11.53
2022-10-02T01:12:24.881Z,11.57
2022-10-02T01:13:24.816Z,11.62
2022-10-02T01:14:24.795Z,11.64
2022-10-02T01:15:25.068Z,11.67
2022-10-02T01:16:24.836Z,11.67
2022-10-02T01:17:24.750Z,11.70
2022-10-02T01:18:24.806Z,11.77
2022-10-02T01:19:24.793Z,11.77
2022-10-02T01:20:24.730Z,11.78
2022-10-02T01:21:24.705Z,11.80
2022-10-02T01:22:24.998Z,11.80
2022-10-02T01:23:24.708Z,11.82
2022-10-02T01:24:25.043Z,11.86
2022-10-02T01:25:24.665Z,11.85
2022-10-02T01:26:24.664Z,11.86
2022-10-02T01:27:24.643Z,11.86
2022-10-02T01:28:24.733Z,11.89
2022-10-02T01:29:24.924Z,11.90
2022-10-02T01:30:24.686Z,11.90
2022-10-02T01:31:24.726Z,11.96
2022-10-02T01:32:24.601Z,11.96
2022-10-02T01:33:24.594Z,11.94
2022-10-02T01:34:24.591Z,11.96
2022-10-02T01:35:24.565Z,11.97
2022-10-02T01:36:24.891Z,12.01
2022-10-02T01:37:24.536Z,12.02
2022-10-02T01:38:24.532Z,12.01
2022-10-02T01:39:24.555Z,12.04
2022-10-02T01:40:24.508Z,12.06
2022-10-02T01:41:24.493Z,12.08
2022-10-02T01:42:24.526Z,12.08
2022-10-02T01:43:24.752Z,12.09
2022-10-02T01:44:24.465Z,12.12
2022-10-02T01:45:24.476Z,12.11
2022-10-02T01:46:24.444Z,12.13
2022-10-02T01:47:24.435Z,12.13
2022-10-02T01:48:24.453Z,12.13
2022-10-02T01:49:24.407Z,12.19
2022-10-02T01:50:24.708Z,12.20
2022-10-02T01:51:24.384Z,12.20
2022-10-02T01:52:24.386Z,12.23
2022-10-02T01:53:24.366Z,12.23
2022-10-02T01:54:24.384Z,12.24
2022-10-02T01:55:24.377Z,12.26
2022-10-02T01:56:24.360Z,12.24
2022-10-02T01:57:24.622Z,12.26
2022-10-02T01:58:24.316Z,12.26
2022-10-02T01:59:24.299Z,12.27
2022-10-02T02:00:24.347Z,12.26
2022-10-02T02:01:24.347Z,12.26
2022-10-02T02:02:24.326Z,12.27
2022-10-02T02:03:24.253Z,12.29
2022-10-02T02:04:24.537Z,12.29
2022-10-02T02:05:24.268Z,12.29
2022-10-02T02:06:24.283Z,12.30
2022-10-02T02:07:24.213Z,12.27
2022-10-02T02:08:24.208Z,12.27
2022-10-02T02:09:24.199Z,12.27
2022-10-02T02:10:24.199Z,12.27
2022-10-02T02:11:24.170Z,12.29
2022-10-02T02:12:24.185Z,12.29
2022-10-02T02:13:24.164Z,12.29
2022-10-02T02:14:24.159Z,12.29
2022-10-02T02:15:24.146Z,12.27
2022-10-02T02:16:24.166Z,12.27
2022-10-02T02:17:24.396Z,12.27
2022-10-02T02:18:24.136Z,12.27
2022-10-02T02:19:24.088Z,12.27
2022-10-02T02:20:24.081Z,12.30
2022-10-02T02:21:24.094Z,12.29
2022-10-02T02:22:24.083Z,12.30
2022-10-02T02:23:24.041Z,12.31
2022-10-02T02:24:24.349Z,12.30
2022-10-02T02:25:24.029Z,12.31
2022-10-02T02:26:24.028Z,12.34
2022-10-02T02:27:24.005Z,12.33
2022-10-02T02:28:24.111Z,12.33
2022-10-02T02:29:23.997Z,12.34
2022-10-02T02:30:24.015Z,12.33
2022-10-02T02:31:24.292Z,12.33
2022-10-02T02:32:23.961Z,12.33
2022-10-02T02:33:23.967Z,12.37
2022-10-02T02:34:23.947Z,12.39
2022-10-02T02:35:23.912Z,12.38
2022-10-02T02:36:23.954Z,12.39
2022-10-02T02:37:23.891Z,12.39
2022-10-02T02:38:23.903Z,12.37
2022-10-02T02:39:23.869Z,12.34
2022-10-02T02:40:23.873Z,12.34
2022-10-02T02:41:23.891Z,12.37
2022-10-02T02:42:26.237Z,12.34
2022-10-02T02:43:23.831Z,12.38
2022-10-02T02:44:23.834Z,12.39
2022-10-02T02:45:23.861Z,12.41
2022-10-02T02:46:23.828Z,12.42
2022-10-02T02:47:23.799Z,12.45
2022-10-02T02:48:23.836Z,12.45
2022-10-02T02:49:23.778Z,12.46
2022-10-02T02:50:23.763Z,12.46
2022-10-02T02:51:23.744Z,12.45
2022-10-02T02:52:23.743Z,12.46
2022-10-02T02:53:23.730Z,12.46
2022-10-02T02:54:24.038Z,12.45
2022-10-02T02:55:23.701Z,12.46
2022-10-02T02:56:23.698Z,12.48
2022-10-02T02:57:23.703Z,12.51
2022-10-02T02:58:23.758Z,12.51
2022-10-02T02:59:23.682Z,12.51
2022-10-02T03:00:23.676Z,12.54
2022-10-02T03:01:24.033Z,12.56
2022-10-02T03:02:23.724Z,12.56
2022-10-02T03:03:23.648Z,12.56
2022-10-02T03:04:23.620Z,12.56
2022-10-02T03:05:23.603Z,12.51
2022-10-02T03:06:23.618Z,12.49
2022-10-02T03:07:23.614Z,12.49
2022-10-02T03:08:23.848Z,12.46
2022-10-02T03:09:23.565Z,12.45
2022-10-02T03:10:23.541Z,12.45
2022-10-02T03:11:23.557Z,12.44
2022-10-02T03:12:23.558Z,12.41
2022-10-02T03:13:23.513Z,12.41
2022-10-02T03:14:23.498Z,12.41
2022-10-02T03:15:23.772Z,12.39
2022-10-02T03:16:23.581Z,12.38
2022-10-02T03:17:23.515Z,12.39
2022-10-02T03:18:23.537Z,12.38
2022-10-02T03:19:23.443Z,12.37
2022-10-02T03:20:23.440Z,12.37
2022-10-02T03:21:23.426Z,12.34
2022-10-02T03:22:23.695Z,12.38
2022-10-02T03:23:23.402Z,12.37
2022-10-02T03:24:23.422Z,12.37
2022-10-02T03:25:23.394Z,12.38
2022-10-02T03:26:23.383Z,12.38
2022-10-02T03:27:23.370Z,12.37
2022-10-02T03:28:43.455Z,12.37
2022-10-02T03:29:23.342Z,12.38
2022-10-02T03:30:23.355Z,12.33
2022-10-02T03:31:23.458Z,12.31
2022-10-02T03:32:23.327Z,12.31
2022-10-02T03:33:23.291Z,12.30
2022-10-02T03:34:23.301Z,12.30
2022-10-02T03:35:23.553Z,12.30
2022-10-02T03:36:23.320Z,12.30
2022-10-02T03:37:23.296Z,12.34
2022-10-02T03:38:23.241Z,12.37
2022-10-02T03:39:25.949Z,12.34
2022-10-02T03:40:23.220Z,12.34
2022-10-02T03:41:23.243Z,12.34
2022-10-02T03:42:24.048Z,12.38
2022-10-02T03:43:23.180Z,12.38
2022-10-02T03:44:23.186Z,12.41
2022-10-02T03:45:46.274Z,12.44
2022-10-02T03:46:23.193Z,12.45
2022-10-02T03:47:23.147Z,12.46
2022-10-02T03:48:23.404Z,12.49
2022-10-02T03:49:23.442Z,12.52
2022-10-02T03:50:23.137Z,12.54
2022-10-02T03:51:23.090Z,12.54
2022-10-02T03:52:23.089Z,12.56
2022-10-02T03:53:23.087Z,12.59
2022-10-02T03:54:23.120Z,12.60
2022-10-02T03:55:23.057Z,12.62
2022-10-02T03:56:23.327Z,12.63
2022-10-02T03:57:23.043Z,12.64
2022-10-02T03:58:23.027Z,12.66
2022-10-02T03:59:23.039Z,12.66
2022-10-02T04:00:23.052Z,12.69
2022-10-02T04:01:23.079Z,12.69
2022-10-02T04:02:22.980Z,12.69
2022-10-02T04:03:23.336Z,12.69
2022-10-02T04:04:23.032Z,12.67
2022-10-02T04:05:22.954Z,12.67
2022-10-02T04:06:22.967Z,12.69
2022-10-02T04:07:22.957Z,12.67
2022-10-02T04:08:22.916Z,12.69
2022-10-02T04:09:22.915Z,12.69
2022-10-02T04:10:23.231Z,12.69
2022-10-02T04:11:22.888Z,12.69
2022-10-02T04:12:22.928Z,12.67
2022-10-02T04:13:22.864Z,12.69
2022-10-02T04:14:22.863Z,12.69
2022-10-02T04:15:22.850Z,12.69
2022-10-02T04:16:22.910Z,12.70
2022-10-02T04:17:23.117Z,12.69
2022-10-02T04:18:22.830Z,12.70
2022-10-02T04:19:22.802Z,12.67
2022-10-02T04:20:22.798Z,12.67
2022-10-02T04:21:22.784Z,12.69
2022-10-02T04:22:22.782Z,12.69
2022-10-02T04:23:22.755Z,12.67
2022-10-02T04:24:23.075Z,12.66
2022-10-02T04:25:22.738Z,12.64
2022-10-02T04:26:22.740Z,12.64
2022-10-02T04:27:22.738Z,12.64
2022-10-02T04:28:22.768Z,12.63
2022-10-02T04:29:22.710Z,12.62
2022-10-02T04:30:22.719Z,12.59
2022-10-02T04:31:22.989Z,12.60
2022-10-02T04:32:22.661Z,12.60
2022-10-02T04:33:22.669Z,12.60
2022-10-02T04:34:22.647Z,12.59
2022-10-02T04:35:22.640Z,12.59
2022-10-02T04:36:22.673Z,12.57
2022-10-02T04:37:22.633Z,12.57
2022-10-02T04:38:22.892Z,12.56
2022-10-02T04:39:22.621Z,12.56
2022-10-02T04:40:22.574Z,12.56
2022-10-02T04:41:22.578Z,12.54
2022-10-02T04:42:22.597Z,12.54
2022-10-02T04:43:22.562Z,12.51
2022-10-02T04:44:22.545Z,12.52
2022-10-02T04:45:22.831Z,12.52
2022-10-02T04:46:22.514Z,12.49
2022-10-02T04:47:22.537Z,12.48
2022-10-02T04:48:22.542Z,12.48
2022-10-02T04:49:22.515Z,12.48
2022-10-02T04:50:22.477Z,12.46
2022-10-02T04:51:22.473Z,12.46
2022-10-02T04:52:22.729Z,12.45
2022-10-02T04:53:22.478Z,12.44
2022-10-02T04:54:22.465Z,12.44
2022-10-02T04:55:22.420Z,12.42
2022-10-02T04:56:22.424Z,12.42
2022-10-02T04:57:22.405Z,12.42
2022-10-02T04:58:22.384Z,12.44
2022-10-02T04:59:22.671Z,12.42
2022-10-02T05:00:22.397Z,12.42
2022-10-02T05:01:22.421Z,12.42
2022-10-02T05:02:22.399Z,12.44
2022-10-02T05:03:22.333Z,12.42
2022-10-02T05:04:22.322Z,12.44
2022-10-02T05:05:22.318Z,12.44
2022-10-02T05:06:22.614Z,12.44
2022-10-02T05:07:22.313Z,12.42
2022-10-02T05:08:22.279Z,12.42
2022-10-02T05:09:24.801Z,12.44
2022-10-02T05:10:22.258Z,12.41
2022-10-02T05:11:22.272Z,12.39
2022-10-02T05:12:22.264Z,12.39
2022-10-02T05:13:22.514Z,12.41
2022-10-02T05:14:22.218Z,12.41
2022-10-02T05:15:22.215Z,12.39
2022-10-02T05:16:22.239Z,12.41
2022-10-02T05:17:22.187Z,12.41
2022-10-02T05:18:22.205Z,12.39
2022-10-02T05:19:22.165Z,12.38
2022-10-02T05:20:22.434Z,12.38
2022-10-02T05:21:22.156Z,12.39
2022-10-02T05:22:22.151Z,12.38
2022-10-02T05:23:22.121Z,12.41
2022-10-02T05:24:22.139Z,12.41
2022-10-02T05:25:22.102Z,12.41
2022-10-02T05:26:22.090Z,12.42
2022-10-02T05:27:22.095Z,12.44
2022-10-02T05:28:22.121Z,12.44
2022-10-02T05:29:22.083Z,12.46
2022-10-02T05:30:22.078Z,12.46
2022-10-02T05:31:22.084Z,12.48
2022-10-02T05:32:22.024Z,12.48
2022-10-02T05:33:22.333Z,12.49
2022-10-02T05:34:21.995Z,12.52
2022-10-02T05:35:22.016Z,12.52
2022-10-02T05:36:22.059Z,12.54
2022-10-02T05:37:21.982Z,12.56
2022-10-02T05:38:21.974Z,12.59
2022-10-02T05:39:22.253Z,12.60
2022-10-02T05:40:21.957Z,12.62
2022-10-02T05:41:21.945Z,12.63
2022-10-02T05:42:21.957Z,12.64
2022-10-02T05:43:21.906Z,12.67
2022-10-02T05:44:21.909Z,12.70
2022-10-02T05:45:21.885Z,12.71
2022-10-02T05:46:21.936Z,12.77
2022-10-02T05:47:21.919Z,12.78
2022-10-02T05:48:22.230Z,12.79
2022-10-02T05:49:21.848Z,12.84
2022-10-02T05:50:21.828Z,12.87
2022-10-02T05:51:23.134Z,12.88
2022-10-02T05:52:21.799Z,12.92
2022-10-02T05:53:21.805Z,12.95
2022-10-02T05:54:21.816Z,12.93
2022-10-02T05:55:21.845Z,12.95
2022-10-02T05:56:21.769Z,12.96
2022-10-02T05:57:21.758Z,13.00
2022-10-02T05:58:22.043Z,13.02
2022-10-02T05:59:21.744Z,13.02
2022-10-02T06:00:21.766Z,13.04
2022-10-02T06:01:21.768Z,13.06
2022-10-02T06:02:21.776Z,13.07
2022-10-02T06:03:21.687Z,13.07
2022-10-02T06:04:21.713Z,13.11
2022-10-02T06:05:21.953Z,13.14
2022-10-02T06:06:21.691Z,13.17
2022-10-02T06:07:21.660Z,13.17
2022-10-02T06:08:21.664Z,13.17
2022-10-02T06:09:21.639Z,13.15
2022-10-02T06:10:21.637Z,13.15
2022-10-02T06:11:21.628Z,13.17
2022-10-02T06:12:21.905Z,13.17
2022-10-02T06:13:21.600Z,13.15
2022-10-02T06:14:21.588Z,13.15
2022-10-02T06:15:21.570Z,13.15
2022-10-02T06:16:21.664Z,13.15
2022-10-02T06:17:21.550Z,13.18
2022-10-02T06:18:21.570Z,13.18
2022-10-02T06:19:21.854Z,13.20
2022-10-02T06:20:21.548Z,13.20
2022-10-02T06:21:21.529Z,13.21
2022-10-02T06:22:21.527Z,13.20
2022-10-02T06:23:21.516Z,13.20
2022-10-02T06:24:21.540Z,13.21
2022-10-02T06:25:21.486Z,13.21
2022-10-02T06:26:21.740Z,13.21
2022-10-02T06:27:21.453Z,13.24
2022-10-02T06:28:21.514Z,13.24
2022-10-02T06:29:26.262Z,13.25
2022-10-02T06:30:21.463Z,13.29
2022-10-02T06:31:21.445Z,13.30
2022-10-02T06:32:21.392Z,13.32
2022-10-02T06:33:21.699Z,13.36
2022-10-02T06:34:21.403Z,13.36
2022-10-02T06:35:21.350Z,13.40
2022-10-02T06:36:21.388Z,13.41
2022-10-02T06:37:21.364Z,13.46
2022-10-02T06:38:21.335Z,13.47
2022-10-02T06:39:21.354Z,13.47
2022-10-02T06:40:21.614Z,13.52
2022-10-02T06:41:21.329Z,13.54
2022-10-02T06:42:21.303Z,13.54
2022-10-02T06:43:21.279Z,13.55
2022-10-02T06:44:21.267Z,13.56
2022-10-02T06:45:21.277Z,13.61
2022-10-02T06:46:21.248Z,13.62
2022-10-02T06:47:21.522Z,13.63
2022-10-02T06:48:21.271Z,13.65
2022-10-02T06:49:21.203Z,13.67
2022-10-02T06:50:21.224Z,13.70
2022-10-02T06:51:21.188Z,13.69
2022-10-02T06:52:21.164Z,13.73
2022-10-02T06:53:21.167Z,13.71
2022-10-02T06:54:21.834Z,13.71
2022-10-02T06:55:21.134Z,13.73
2022-10-02T06:56:21.131Z,13.76
2022-10-02T06:57:21.123Z,13.76
2022-10-02T06:58:21.119Z,13.76
2022-10-02T06:59:21.110Z,13.77
2022-10-02T07:00:21.153Z,13.77
2022-10-02T07:01:21.122Z,13.79
2022-10-02T07:02:21.099Z,13.79
2022-10-02T07:03:21.058Z,13.79
2022-10-02T07:04:21.073Z,13.80
2022-10-02T07:05:21.059Z,13.79
2022-10-02T07:06:21.077Z,13.80
2022-10-02T07:07:21.014Z,13.83
2022-10-02T07:08:21.038Z,13.84
2022-10-02T07:09:20.991Z,13.87
2022-10-02T07:10:21.011Z,13.88
2022-10-02T07:11:21.014Z,13.87
2022-10-02T07:12:21.019Z,13.88
2022-10-02T07:13:21.235Z,13.89
2022-10-02T07:14:20.968Z,13.92
2022-10-02T07:15:20.962Z,13.92
2022-10-02T07:16:21.021Z,13.95
2022-10-02T07:17:22.417Z,13.96
2022-10-02T07:18:20.947Z,13.96
2022-10-02T07:19:20.880Z,13.95
2022-10-02T07:20:21.192Z,13.94
2022-10-02T07:21:20.900Z,13.94
2022-10-02T07:22:43.499Z,13.94
2022-10-02T07:23:20.883Z,13.98
2022-10-02T07:24:20.877Z,14.04
2022-10-02T07:25:20.844Z,14.06
2022-10-02T07:26:20.872Z,14.10
2022-10-02T07:27:21.077Z,14.14
2022-10-02T07:28:20.879Z,14.19
2022-10-02T07:29:20.777Z,14.19
2022-10-02T07:30:20.820Z,14.19
2022-10-02T07:31:20.851Z,14.19
2022-10-02T07:32:20.758Z,14.19
2022-10-02T07:33:20.760Z,14.19
2022-10-02T07:34:21.030Z,14.24
2022-10-02T07:35:20.742Z,14.20
2022-10-02T07:36:20.797Z,14.19
2022-10-02T07:37:20.734Z,14.24
2022-10-02T07:38:20.679Z,14.28
2022-10-02T07:39:20.703Z,14.29
2022-10-02T07:40:20.787Z,14.28
2022-10-02T07:41:20.933Z,14.32
2022-10-02T07:42:20.737Z,14.34
2022-10-02T07:43:20.641Z,14.34
2022-10-02T07:44:20.672Z,14.37
2022-10-02T07:45:20.654Z,14.37
2022-10-02T07:46:20.608Z,14.37
2022-10-02T07:47:20.605Z,14.39
2022-10-02T07:48:20.999Z,14.39
2022-10-02T07:49:20.562Z,14.43
2022-10-02T07:50:20.671Z,14.46
2022-10-02T07:51:21.078Z,14.50
2022-10-02T07:52:20.603Z,14.53
2022-10-02T07:53:20.588Z,14.61
2022-10-02T07:54:20.606Z,14.61
2022-10-02T07:55:20.675Z,14.60
2022-10-02T07:56:20.533Z,14.62
2022-10-02T07:57:20.524Z,14.67
2022-10-02T07:58:20.495Z,14.71
2022-10-02T07:59:20.496Z,14.74
2022-10-02T08:00:21.439Z,14.80
2022-10-02T08:01:21.829Z,14.86
2022-10-02T08:02:20.563Z,14.86
2022-10-02T08:03:20.427Z,14.88
2022-10-02T08:04:20.463Z,14.93
2022-10-02T08:05:20.430Z,14.88
2022-10-02T08:06:20.488Z,14.91
2022-10-02T08:07:20.466Z,14.91
2022-10-02T08:08:20.471Z,14.91
2022-10-02T08:09:20.401Z,14.90
2022-10-02T08:10:20.393Z,14.93
2022-10-02T08:11:20.353Z,14.93
2022-10-02T08:12:20.408Z,14.91
2022-10-02T08:13:21.642Z,14.93
2022-10-02T08:14:20.313Z,14.94
2022-10-02T08:15:20.301Z,14.91
2022-10-02T08:16:20.333Z,14.94
2022-10-02T08:17:20.360Z,15.01
2022-10-02T08:18:34.064Z,15.06
2022-10-02T08:19:20.349Z,15.11
2022-10-02T08:20:20.568Z,15.20
2022-10-02T08:21:20.274Z,15.28
2022-10-02T08:22:20.320Z,15.33
2022-10-02T08:23:20.248Z,15.30
2022-10-02T08:24:20.259Z,15.30
2022-10-02T08:25:20.268Z,15.30
2022-10-02T08:26:20.298Z,15.30
2022-10-02T08:27:20.338Z,15.27
2022-10-02T08:28:20.284Z,15.28
2022-10-02T08:29:20.191Z,15.27
2022-10-02T08:30:20.205Z,15.26
2022-10-02T08:31:20.236Z,15.23
2022-10-02T08:32:20.407Z,15.21
2022-10-02T08:33:20.159Z,15.23
2022-10-02T08:34:20.163Z,15.24
2022-10-02T08:35:20.144Z,15.28
2022-10-02T08:36:20.187Z,15.31
2022-10-02T08:37:20.114Z,15.35
2022-10-02T08:38:20.104Z,15.41
2022-10-02T08:39:20.458Z,15.48
2022-10-02T08:40:20.044Z,15.56
2022-10-02T08:41:20.055Z,15.67
2022-10-02T08:42:20.116Z,15.89
2022-10-02T08:43:20.016Z,16.06
2022-10-02T08:44:20.012Z,16.23
2022-10-02T08:45:20.060Z,16.41
2022-10-02T08:46:20.255Z,16.62
2022-10-02T08:47:20.024Z,16.75
2022-10-02T08:48:20.047Z,16.74
2022-10-02T08:49:19.991Z,16.80
2022-10-02T08:50:19.986Z,16.89
2022-10-02T08:51:20.071Z,17.03
2022-10-02T08:52:20.016Z,17.08
2022-10-02T08:53:19.895Z,17.14
2022-10-02T08:54:20.096Z,17.17
2022-10-02T08:55:19.897Z,17.10
2022-10-02T08:56:20.462Z,16.93
2022-10-02T08:57:19.953Z,16.90
2022-10-02T08:58:19.925Z,16.86
2022-10-02T08:59:20.207Z,16.74
2022-10-02T09:00:19.935Z,16.68
2022-10-02T09:01:19.920Z,16.62
2022-10-02T09:02:19.999Z,16.56
2022-10-02T09:03:19.887Z,16.48
2022-10-02T09:04:19.869Z,16.45
2022-10-02T09:05:19.866Z,16.58
2022-10-02T09:06:20.204Z,16.63
2022-10-02T09:07:19.833Z,16.70
2022-10-02T09:08:19.787Z,16.74
2022-10-02T09:09:19.773Z,16.86
2022-10-02T09:10:19.786Z,16.95
2022-10-02T09:11:19.749Z,16.95
2022-10-02T09:12:19.784Z,17.06
2022-10-02T09:13:20.102Z,17.23
2022-10-02T09:14:19.699Z,17.33
2022-10-02T09:15:19.713Z,17.29
2022-10-02T09:16:19.788Z,17.23
2022-10-02T09:17:19.743Z,17.29
2022-10-02T09:18:19.770Z,17.23
2022-10-02T09:19:19.651Z,17.23
2022-10-02T09:20:19.981Z,17.38
2022-10-02T09:21:19.705Z,17.43
2022-10-02T09:22:19.720Z,17.29
2022-10-02T09:23:19.570Z,17.22
2022-10-02T09:24:19.651Z,17.14
2022-10-02T09:25:19.562Z,17.14
2022-10-02T09:26:19.637Z,17.23
2022-10-02T09:27:20.878Z,17.22
2022-10-02T09:28:19.697Z,17.03
2022-10-02T09:29:19.609Z,16.93
2022-10-02T09:30:19.684Z,16.99
2022-10-02T09:31:19.680Z,17.10
2022-10-02T09:32:19.525Z,17.13
2022-10-02T09:33:19.507Z,17.20
2022-10-02T09:34:19.759Z,17.14
2022-10-02T09:35:19.444Z,17.10
2022-10-02T09:36:19.556Z,17.28
2022-10-02T09:37:19.451Z,17.50
2022-10-02T09:38:19.469Z,17.74
2022-10-02T09:39:19.453Z,17.84
2022-10-02T09:40:19.437Z,18.04
2022-10-02T09:41:19.784Z,18.28
2022-10-02T09:42:19.556Z,18.47
2022-10-02T09:43:19.427Z,18.64
2022-10-02T09:44:19.467Z,18.68
2022-10-02T09:45:19.405Z,18.70
2022-10-02T09:46:19.396Z,18.90
2022-10-02T09:47:19.388Z,18.99
2022-10-02T09:48:19.700Z,19.18
2022-10-02T09:49:19.302Z,19.23
2022-10-02T09:50:19.324Z,18.95
2022-10-02T09:51:19.345Z,18.62
2022-10-02T09:52:19.288Z,18.54
2022-10-02T09:53:19.323Z,18.39
2022-10-02T09:54:19.380Z,18.37
2022-10-02T09:55:19.575Z,18.43
2022-10-02T09:56:19.305Z,18.37
2022-10-02T09:57:19.277Z,18.25
2022-10-02T09:58:19.241Z,18.18
2022-10-02T09:59:19.293Z,17.94
2022-10-02T10:00:19.611Z,17.78
2022-10-02T10:01:19.282Z,17.74
2022-10-02T10:02:23.343Z,17.73
2022-10-02T10:03:19.242Z,17.79
2022-10-02T10:04:19.763Z,17.92
2022-10-02T10:05:19.210Z,18.19
2022-10-02T10:06:19.248Z,18.29
2022-10-02T10:07:19.401Z,18.19
2022-10-02T10:08:19.181Z,18.25
2022-10-02T10:09:19.452Z,18.04
2022-10-02T10:10:19.116Z,18.27
2022-10-02T10:11:19.149Z,18.61
2022-10-02T10:12:19.275Z,18.62
2022-10-02T10:13:19.167Z,18.55
2022-10-02T10:14:19.100Z,18.46
2022-10-02T10:15:19.115Z,18.31
2022-10-02T10:16:19.430Z,18.17
2022-10-02T10:17:19.127Z,17.95
2022-10-02T10:18:19.116Z,17.87
2022-10-02T10:19:19.045Z,17.76
2022-10-02T10:20:19.052Z,17.64
2022-10-02T10:21:19.003Z,17.63
2022-10-02T10:22:19.081Z,17.43
2022-10-02T10:23:19.298Z,17.30
2022-10-02T10:24:19.040Z,17.30
2022-10-02T10:25:18.969Z,17.32
2022-10-02T10:26:19.086Z,17.62
2022-10-02T10:27:19.000Z,18.07
2022-10-02T10:28:19.118Z,18.58
2022-10-02T10:29:18.937Z,19.14
2022-10-02T10:30:19.305Z,19.43
2022-10-02T10:31:19.060Z,19.48
2022-10-02T10:32:18.877Z,19.21
2022-10-02T10:33:18.889Z,19.06
2022-10-02T10:34:18.862Z,18.95
2022-10-02T10:35:18.890Z,18.86
2022-10-02T10:36:19.028Z,18.68
2022-10-02T10:37:19.160Z,18.61
2022-10-02T10:38:18.846Z,18.58
2022-10-02T10:39:18.872Z,18.50
2022-10-02T10:40:18.837Z,18.55
2022-10-02T10:41:18.823Z,18.64
2022-10-02T10:42:18.948Z,18.74
2022-10-02T10:43:18.800Z,18.94
2022-10-02T10:44:19.076Z,18.82
2022-10-02T10:45:18.787Z,18.72
2022-10-02T10:46:18.838Z,18.87
2022-10-02T10:47:18.751Z,18.77
2022-10-02T10:48:18.784Z,18.84
2022-10-02T10:49:18.783Z,18.79
2022-10-02T10:50:18.738Z,18.99
2022-10-02T10:51:18.731Z,19.32
2022-10-02T10:52:18.770Z,19.61
2022-10-02T10:53:18.792Z,19.87
2022-10-02T10:54:18.770Z,19.83
2022-10-02T10:55:18.672Z,19.57
2022-10-02T10:56:19.073Z,19.53
2022-10-02T10:57:18.723Z,19.65
2022-10-02T10:58:18.663Z,19.86
2022-10-02T10:59:23.065Z,19.91
2022-10-02T11:00:18.678Z,19.84
2022-10-02T11:01:18.728Z,19.88
2022-10-02T11:02:18.736Z,20.03
2022-10-02T11:03:18.662Z,20.49
2022-10-02T11:04:18.591Z,20.90
2022-10-02T11:05:18.597Z,20.80
2022-10-02T11:06:18.648Z,20.62
2022-10-02T11:07:18.572Z,20.86
2022-10-02T11:08:18.911Z,21.06
2022-10-02T11:09:18.494Z,21.21
2022-10-02T11:10:18.624Z,21.16
2022-10-02T11:11:18.574Z,21.30
2022-10-02T11:12:18.641Z,21.38
2022-10-02T11:13:18.471Z,21.44
2022-10-02T11:14:18.518Z,21.78
2022-10-02T11:15:18.827Z,21.99
2022-10-02T11:16:18.567Z,21.88
2022-10-02T11:17:18.531Z,21.59
2022-10-02T11:18:18.540Z,21.36
2022-10-02T11:19:21.501Z,21.29
2022-10-02T11:20:18.404Z,21.34
2022-10-02T11:21:18.378Z,21.39
2022-10-02T11:22:20.835Z,21.46
2022-10-02T11:23:18.388Z,21.63
2022-10-02T11:24:18.537Z,21.60
2022-10-02T11:25:18.406Z,21.27
2022-10-02T11:26:18.452Z,20.99
2022-10-02T11:27:18.390Z,20.79
2022-10-02T11:28:18.530Z,20.74
2022-10-02T11:29:18.610Z,20.71
2022-10-02T11:30:18.457Z,20.83
2022-10-02T11:31:18.350Z,20.83
2022-10-02T11:32:18.303Z,20.87
2022-10-02T11:33:18.338Z,20.80
2022-10-02T11:34:18.700Z,20.69
2022-10-02T11:35:18.736Z,20.72
2022-10-02T11:36:19.240Z,20.65
2022-10-02T11:37:18.757Z,20.56
2022-10-02T11:38:18.612Z,20.51
2022-10-02T11:39:18.252Z,20.38
2022-10-02T11:40:18.227Z,20.68
2022-10-02T11:41:18.270Z,20.98
2022-10-02T11:42:18.300Z,21.39
2022-10-02T11:43:18.494Z,21.64
2022-10-02T11:44:18.187Z,21.39
2022-10-02T11:45:18.225Z,21.16
2022-10-02T11:46:18.353Z,21.02
2022-10-02T11:47:18.121Z,20.79
2022-10-02T11:48:18.215Z,20.69
2022-10-02T11:49:18.130Z,20.49
2022-10-02T11:50:18.428Z,20.47
2022-10-02T11:51:18.095Z,20.61
2022-10-02T11:52:18.129Z,20.90
2022-10-02T11:53:18.086Z,21.27
2022-10-02T11:54:18.070Z,21.48
2022-10-02T11:55:18.068Z,21.71
2022-10-02T11:56:18.076Z,21.90
2022-10-02T11:57:18.332Z,21.85
2022-10-02T11:58:18.086Z,21.63
2022-10-02T11:59:18.560Z,21.32
2022-10-02T12:00:18.097Z,20.84
2022-10-02T12:01:18.031Z,20.69
2022-10-02T12:02:18.087Z,20.58
2022-10-02T12:03:18.149Z,20.58
2022-10-02T12:04:18.257Z,20.43
2022-10-02T12:05:18.047Z,20.24
2022-10-02T12:06:18.226Z,20.12
2022-10-02T12:07:17.968Z,20.38
2022-10-02T12:08:17.938Z,20.83
2022-10-02T12:09:17.938Z,21.44
2022-10-02T12:10:17.886Z,21.72
2022-10-02T12:11:18.209Z,21.72
2022-10-02T12:12:18.070Z,21.19
2022-10-02T12:13:18.019Z,20.72
2022-10-02T12:14:17.873Z,20.65
2022-10-02T12:15:17.884Z,20.62
2022-10-02T12:16:17.995Z,20.69
2022-10-02T12:17:17.844Z,20.69
2022-10-02T12:18:21.611Z,20.59
2022-10-02T12:19:17.768Z,20.34
2022-10-02T12:20:18.001Z,20.13
2022-10-02T12:21:17.855Z,19.91
2022-10-02T12:22:17.824Z,19.72
2022-10-02T12:23:17.853Z,19.53
2022-10-02T12:24:17.968Z,19.29
2022-10-02T12:25:18.128Z,19.21
2022-10-02T12:26:17.729Z,19.11
2022-10-02T12:27:17.717Z,18.91
2022-10-02T12:28:17.850Z,18.74
2022-10-02T12:29:17.771Z,18.64
2022-10-02T12:30:17.826Z,18.64
2022-10-02T12:31:17.742Z,18.55
2022-10-02T12:32:17.969Z,18.49
2022-10-02T12:33:17.720Z,18.57
2022-10-02T12:34:17.730Z,19.08
2022-10-02T12:35:17.691Z,19.46
2022-10-02T12:36:17.683Z,19.61
2022-10-02T12:37:17.669Z,20.02
2022-10-02T12:38:17.635Z,20.31
2022-10-02T12:39:21.869Z,20.49
2022-10-02T12:40:17.641Z,20.27
2022-10-02T12:41:17.589Z,20.06
2022-10-02T12:42:17.690Z,19.97
2022-10-02T12:43:17.631Z,19.97
2022-10-02T12:44:17.551Z,19.86
2022-10-02T12:45:17.562Z,19.95
2022-10-02T12:46:17.803Z,20.18
2022-10-02T12:47:17.584Z,20.43
2022-10-02T12:48:17.612Z,20.62
2022-10-02T12:49:17.492Z,20.58
2022-10-02T12:50:17.462Z,20.46
2022-10-02T12:51:17.509Z,20.76
2022-10-02T12:52:17.491Z,20.81